createdAt,value
2023-03-05T00:01:42.069Z,100265.16
2023-03-05T00:04:15.640Z,100272.25
2023-03-05T00:06:44.150Z,100276.66
2023-03-05T00:09:12.854Z,100276.88
2023-03-05T00:11:41.382Z,100271.97
2023-03-05T00:14:09.845Z,100273.06
2023-03-05T00:16:38.406Z,100271.56
2023-03-05T00:19:07.075Z,100272.88
2023-03-05T00:21:39.391Z,100268.88
2023-03-05T00:24:13.827Z,100263.19
2023-03-05T00:26:42.686Z,100264.19
2023-03-05T00:29:21.914Z,100267.19
2023-03-05T00:31:50.574Z,100250.94
2023-03-05T00:34:20.385Z,100245.41
2023-03-05T00:36:52.309Z,100244.44
2023-03-05T00:39:22.442Z,100235.56
2023-03-05T00:41:51.261Z,100236.53
2023-03-05T00:44:19.794Z,100237.34
2023-03-05T00:46:48.403Z,100238.19
2023-03-05T00:49:17.050Z,100248.53
2023-03-05T00:51:45.644Z,100236.94
2023-03-05T00:54:14.072Z,100238.69
2023-03-05T00:56:42.643Z,100225.50
2023-03-05T00:59:11.169Z,100232.97
2023-03-05T01:01:39.638Z,100228.63
2023-03-05T01:04:08.026Z,100230.84
2023-03-05T01:06:36.491Z,100226.03
2023-03-05T01:09:05.300Z,100214.09
2023-03-05T01:11:33.784Z,100209.09
2023-03-05T01:14:02.352Z,100213.13
2023-03-05T01:16:30.931Z,100205.09
2023-03-05T01:18:59.383Z,100200.59
2023-03-05T01:21:27.881Z,100198.94
2023-03-05T01:23:56.513Z,100200.91
2023-03-05T01:26:24.980Z,100200.91
2023-03-05T01:28:53.710Z,100193.41
2023-03-05T01:31:22.413Z,100197.59
2023-03-05T01:33:54.384Z,100194.22
2023-03-05T01:36:25.241Z,100197.72
2023-03-05T01:38:54.129Z,100202.28
2023-03-05T01:41:22.870Z,100185.31
2023-03-05T01:43:52.960Z,100185.44
2023-03-05T01:46:30.956Z,100192.25
2023-03-05T01:49:20.976Z,100187.56
2023-03-05T01:52:03.014Z,100184.66
2023-03-05T01:54:37.710Z,100183.69
2023-03-05T01:57:34.421Z,100184.41
2023-03-05T02:00:13.310Z,100177.47
2023-03-05T02:02:42.813Z,100174.56
2023-03-05T02:05:16.130Z,100172.06
2023-03-05T02:07:45.271Z,100169.16
2023-03-05T02:10:32.496Z,100160.19
2023-03-05T02:13:05.223Z,100161.97
2023-03-05T02:15:35.057Z,100162.66
2023-03-05T02:18:03.933Z,100161.09
2023-03-05T02:20:51.996Z,100153.88
2023-03-05T02:23:22.774Z,100148.59
2023-03-05T02:25:51.370Z,100143.75
2023-03-05T02:28:44.808Z,100147.34
2023-03-05T02:31:24.102Z,100140.41
2023-03-05T02:33:54.062Z,100149.16
2023-03-05T02:36:23.016Z,100135.41
2023-03-05T02:38:52.972Z,100135.41
2023-03-05T02:41:22.046Z,100129.56
2023-03-05T02:43:50.688Z,100134.72
2023-03-05T02:46:19.678Z,100126.25
2023-03-05T02:48:48.149Z,100125.41
2023-03-05T02:51:16.557Z,100123.16
2023-03-05T02:53:45.008Z,100127.28
2023-03-05T02:56:13.612Z,100122.47
2023-03-05T02:58:42.254Z,100118.16
2023-03-05T03:01:11.566Z,100117.88
2023-03-05T03:03:40.862Z,100122.47
2023-03-05T03:06:09.525Z,100121.63
2023-03-05T03:08:38.179Z,100118.97
2023-03-05T03:11:12.569Z,100122.59
2023-03-05T03:13:41.829Z,100122.88
2023-03-05T03:16:14.938Z,100111.34
2023-03-05T03:18:44.393Z,100111.50
2023-03-05T03:21:23.235Z,100109.81
2023-03-05T03:23:52.065Z,100110.50
2023-03-05T03:26:21.033Z,100104.56
2023-03-05T03:28:49.456Z,100104.81
2023-03-05T03:31:17.947Z,100097.88
2023-03-05T03:33:46.586Z,100096.09
2023-03-05T03:36:15.076Z,100101.72
2023-03-05T03:38:43.683Z,100091.78
2023-03-05T03:41:12.142Z,100089.56
2023-03-05T03:43:40.660Z,100099.81
2023-03-05T03:46:09.553Z,100094.81
2023-03-05T03:48:38.224Z,100082.63
2023-03-05T03:51:08.649Z,100082.03
2023-03-05T03:53:37.210Z,100076.47
2023-03-05T03:56:06.174Z,100078.97
2023-03-05T03:58:34.614Z,100078.94
2023-03-05T04:01:03.231Z,100072.56
2023-03-05T04:03:31.731Z,100066.72
2023-03-05T04:06:00.819Z,100071.72
2023-03-05T04:08:29.311Z,100067.03
2023-03-05T04:10:57.822Z,100060.66
2023-03-05T04:13:26.324Z,100063.03
2023-03-05T04:15:55.762Z,100057.50
2023-03-05T04:18:24.395Z,100057.41
2023-03-05T04:20:53.068Z,100057.41
2023-03-05T04:23:21.524Z,100056.56
2023-03-05T04:25:50.170Z,100057.66
2023-03-05T04:28:18.991Z,100054.19
2023-03-05T04:30:47.435Z,100042.28
2023-03-05T04:33:15.989Z,100043.38
2023-03-05T04:35:44.605Z,100039.91
2023-03-05T04:38:13.754Z,100031.06
2023-03-05T04:40:42.401Z,100026.91
2023-03-05T04:43:10.983Z,100026.75
2023-03-05T04:45:42.357Z,100028.28
2023-03-05T04:48:12.274Z,100028.16
2023-03-05T04:50:41.085Z,100030.41
2023-03-05T04:53:09.517Z,100026.78
2023-03-05T04:55:37.973Z,100008.94
2023-03-05T04:58:07.282Z,100021.00
2023-03-05T05:00:35.704Z,100007.81
2023-03-05T05:03:04.243Z,100002.44
2023-03-05T05:05:32.740Z,100015.59
2023-03-05T05:08:01.236Z,100003.28
2023-03-05T05:10:29.725Z,100002.28
2023-03-05T05:12:58.464Z,100003.97
2023-03-05T05:15:26.976Z,99991.91
2023-03-05T05:17:55.465Z,100000.66
2023-03-05T05:20:24.104Z,99996.06
2023-03-05T05:22:52.587Z,99996.22
2023-03-05T05:25:21.130Z,99996.75
2023-03-05T05:27:49.684Z,99997.47
2023-03-05T05:30:18.368Z,99990.66
2023-03-05T05:32:46.868Z,99988.16
2023-03-05T05:35:15.419Z,99985.53
2023-03-05T05:37:43.904Z,99998.69
2023-03-05T05:40:12.976Z,99994.13
2023-03-05T05:42:41.536Z,99994.81
2023-03-05T05:45:11.335Z,99998.00
2023-03-05T05:47:39.840Z,100000.22
2023-03-05T05:50:08.901Z,99999.38
2023-03-05T05:52:37.375Z,99992.75
2023-03-05T05:55:06.338Z,100004.81
2023-03-05T05:57:35.400Z,100002.72
2023-03-05T06:00:05.374Z,99995.41
2023-03-05T06:02:33.981Z,99998.72
2023-03-05T06:05:02.452Z,99989.97
2023-03-05T06:07:31.692Z,99999.69
2023-03-05T06:10:00.363Z,99995.97
2023-03-05T06:12:28.891Z,99994.28
2023-03-05T06:14:57.940Z,100000.09
2023-03-05T06:17:30.800Z,99993.00
2023-03-05T06:20:01.129Z,99988.72
2023-03-05T06:22:29.637Z,100002.97
2023-03-05T06:24:58.183Z,100000.91
2023-03-05T06:27:26.866Z,99995.38
2023-03-05T06:29:56.730Z,100002.72
2023-03-05T06:32:25.508Z,100012.16
2023-03-05T06:34:54.367Z,99996.34
2023-03-05T06:37:22.852Z,99995.38
2023-03-05T06:39:51.334Z,99992.03
2023-03-05T06:42:19.789Z,99989.69
2023-03-05T06:44:48.528Z,99996.50
2023-03-05T06:47:17.208Z,99992.88
2023-03-05T06:49:45.771Z,99993.03
2023-03-05T06:52:14.189Z,99991.53
2023-03-05T06:54:42.720Z,99986.56
2023-03-05T06:57:12.068Z,99985.28
2023-03-05T06:59:40.541Z,99978.66
2023-03-05T07:02:13.830Z,99984.59
2023-03-05T07:04:42.429Z,99988.75
2023-03-05T07:07:10.934Z,99993.47
2023-03-05T07:09:42.970Z,99981.81
2023-03-05T07:12:12.676Z,99987.25
2023-03-05T07:14:41.473Z,99979.63
2023-03-05T07:17:10.330Z,99982.94
2023-03-05T07:19:39.849Z,99985.03
2023-03-05T07:22:09.237Z,99984.50
2023-03-05T07:24:38.363Z,99995.84
2023-03-05T07:27:06.888Z,99986.44
2023-03-05T07:29:35.409Z,99989.34
2023-03-05T07:32:04.271Z,99983.66
2023-03-05T07:34:32.910Z,99982.09
2023-03-05T07:37:01.571Z,99986.00
2023-03-05T07:39:30.051Z,99974.91
2023-03-05T07:41:58.508Z,99976.44
2023-03-05T07:44:26.897Z,99975.47
2023-03-05T07:46:55.425Z,99977.84
2023-03-05T07:49:23.940Z,99974.06
2023-03-05T07:51:52.546Z,99967.69
2023-03-05T07:54:20.960Z,99969.78
2023-03-05T07:56:49.606Z,99968.41
2023-03-05T07:59:18.190Z,99968.41
2023-03-05T08:01:47.307Z,99967.00
2023-03-05T08:04:15.896Z,99970.22
2023-03-05T08:06:44.520Z,99966.72
2023-03-05T08:09:12.960Z,99966.44
2023-03-05T08:11:41.833Z,99965.47
2023-03-05T08:14:10.593Z,99964.78
2023-03-05T08:16:41.104Z,99959.59
2023-03-05T08:19:10.772Z,99963.34
2023-03-05T08:21:40.169Z,99956.53
2023-03-05T08:24:10.120Z,99961.63
2023-03-05T08:26:39.635Z,99958.28
2023-03-05T08:29:09.890Z,99957.69
2023-03-05T08:31:38.947Z,99948.81
2023-03-05T08:34:07.743Z,99959.50
2023-03-05T08:36:36.529Z,99960.53
2023-03-05T08:39:06.828Z,99954.72
2023-03-05T08:41:35.320Z,99955.38
2023-03-05T08:44:04.354Z,99951.16
2023-03-05T08:46:33.715Z,99953.66
2023-03-05T08:49:02.991Z,99950.28
2023-03-05T08:51:36.049Z,99947.19
2023-03-05T08:54:07.399Z,99938.97
2023-03-05T08:56:37.804Z,99940.81
2023-03-05T08:59:07.855Z,99935.78
2023-03-05T09:01:37.821Z,99935.66
2023-03-05T09:04:06.960Z,99933.69
2023-03-05T09:06:39.478Z,99933.63
2023-03-05T09:09:09.881Z,99939.44
2023-03-05T09:11:39.068Z,99937.75
2023-03-05T09:14:09.591Z,99924.97
2023-03-05T09:16:40.653Z,99925.38
2023-03-05T09:19:10.782Z,99919.72
2023-03-05T09:21:39.895Z,99917.84
2023-03-05T09:24:08.910Z,99910.31
2023-03-05T09:26:37.661Z,99912.31
2023-03-05T09:29:07.650Z,99914.66
2023-03-05T09:31:38.558Z,99915.03
2023-03-05T09:34:09.483Z,99908.88
2023-03-05T09:36:38.199Z,99912.53
2023-03-05T09:39:07.850Z,99913.28
2023-03-05T09:42:09.922Z,99920.56
2023-03-05T09:45:15.537Z,99915.44
2023-03-05T09:48:20.002Z,99922.28
2023-03-05T09:50:52.814Z,99920.34
2023-03-05T09:53:44.577Z,99894.94
2023-03-05T09:56:18.468Z,99892.75
2023-03-05T09:59:18.820Z,99895.50
2023-03-05T10:01:48.034Z,99899.63
2023-03-05T10:04:43.991Z,99883.75
2023-03-05T10:07:30.290Z,99878.13
2023-03-05T10:10:03.025Z,99885.88
2023-03-05T10:12:43.833Z,99884.75
2023-03-05T10:15:23.320Z,99880.63
2023-03-05T10:18:26.568Z,99880.63
2023-03-05T10:21:30.769Z,99872.09
2023-03-05T10:24:08.289Z,99874.13
2023-03-05T10:27:10.491Z,99860.88
2023-03-05T10:30:06.186Z,99853.84
2023-03-05T10:32:45.747Z,99847.75
2023-03-05T10:35:57.101Z,99846.38
2023-03-05T10:38:28.715Z,99844.25
2023-03-05T10:40:57.974Z,99837.56
2023-03-05T10:44:21.702Z,99847.13
2023-03-05T10:46:51.579Z,99851.03
2023-03-05T10:49:37.651Z,99837.09
2023-03-05T10:52:30.597Z,99831.19
2023-03-05T10:54:59.154Z,99834.78
2023-03-05T10:57:29.924Z,99827.59
2023-03-05T11:00:06.892Z,99825.03
2023-03-05T11:02:36.025Z,99813.56
2023-03-05T11:05:05.319Z,99814.31
2023-03-05T11:07:36.900Z,99811.97
2023-03-05T11:10:15.549Z,99798.81
2023-03-05T11:12:45.095Z,99813.53
2023-03-05T11:15:16.520Z,99806.13
2023-03-05T11:18:05.851Z,99799.63
2023-03-05T11:20:38.134Z,99794.66
2023-03-05T11:23:24.785Z,99784.38
2023-03-05T11:25:53.257Z,99783.75
2023-03-05T11:28:33.545Z,99776.16
2023-03-05T11:31:17.480Z,99772.84
2023-03-05T11:34:04.221Z,99774.88
2023-03-05T11:36:58.619Z,99769.97
2023-03-05T11:39:30.386Z,99759.88
2023-03-05T11:42:13.286Z,99758.91
2023-03-05T11:44:55.819Z,99754.09
2023-03-05T11:47:44.470Z,99753.63
2023-03-05T11:50:27.736Z,99759.19
2023-03-05T11:53:09.542Z,99739.72
2023-03-05T11:56:07.349Z,99742.75
2023-03-05T11:58:56.415Z,99743.09
2023-03-05T12:01:30.291Z,99728.22
2023-03-05T12:04:00.084Z,99741.69
2023-03-05T12:06:55.976Z,99725.56
2023-03-05T12:09:45.708Z,99730.38
2023-03-05T12:12:23.169Z,99733.16
2023-03-05T12:15:04.762Z,99719.75
2023-03-05T12:17:58.368Z,99728.97
2023-03-05T12:20:46.704Z,99728.78
2023-03-05T12:23:22.168Z,99718.50
2023-03-05T12:25:52.139Z,99732.09
2023-03-05T12:28:35.427Z,99721.44
2023-03-05T12:31:27.621Z,99721.63
2023-03-05T12:33:56.224Z,99725.59
2023-03-05T12:36:24.726Z,99706.28
2023-03-05T12:38:57.637Z,99716.69
2023-03-05T12:41:28.073Z,99717.81
2023-03-05T12:44:09.030Z,99701.94
2023-03-05T12:46:46.085Z,99703.28
2023-03-05T12:49:20.274Z,99700.34
2023-03-05T12:51:56.990Z,99697.69
2023-03-05T12:54:39.704Z,99695.13
2023-03-05T12:57:29.525Z,99693.56
2023-03-05T13:00:21.753Z,99686.84
2023-03-05T13:02:58.701Z,99686.63
2023-03-05T13:05:36.178Z,99676.63
2023-03-05T13:08:37.743Z,99675.56
2023-03-05T13:11:17.903Z,99669.44
2023-03-05T13:13:49.257Z,99666.38
2023-03-05T13:16:29.218Z,99667.13
2023-03-05T13:19:01.395Z,99671.44
2023-03-05T13:21:33.396Z,99678.97
2023-03-05T13:24:04.601Z,99669.94
2023-03-05T13:26:41.643Z,99674.75
2023-03-05T13:29:15.721Z,99678.41
2023-03-05T13:31:52.022Z,99674.56
2023-03-05T13:34:37.445Z,99673.44
2023-03-05T13:37:22.241Z,99682.03
2023-03-05T13:40:00.382Z,99678.28
2023-03-05T13:42:36.251Z,99679.13
2023-03-05T13:45:27.034Z,99672.59
2023-03-05T13:47:55.885Z,99671.13
2023-03-05T13:50:33.373Z,99665.53
2023-03-05T13:53:24.261Z,99669.69
2023-03-05T13:55:57.613Z,99677.38
2023-03-05T13:58:53.828Z,99674.22
2023-03-05T14:01:49.490Z,99672.81
2023-03-05T14:04:23.769Z,99672.63
2023-03-05T14:07:03.470Z,99665.72
2023-03-05T14:09:47.046Z,99664.78
2023-03-05T14:12:43.579Z,99665.84
2023-03-05T14:15:26.780Z,99651.81
2023-03-05T14:18:17.370Z,99650.00
2023-03-05T14:21:11.351Z,99637.97
2023-03-05T14:23:53.050Z,99637.38
2023-03-05T14:26:21.629Z,99632.28
2023-03-05T14:29:12.650Z,99622.72
2023-03-05T14:32:05.048Z,99625.88
2023-03-05T14:34:44.177Z,99625.06
2023-03-05T14:37:49.082Z,99632.34
2023-03-05T14:40:22.150Z,99625.59
2023-03-05T14:43:04.076Z,99613.16
2023-03-05T14:45:44.313Z,99605.88
2023-03-05T14:48:15.800Z,99606.38
2023-03-05T14:50:56.502Z,99608.69
2023-03-05T14:53:34.586Z,99606.84
2023-03-05T14:56:03.334Z,99596.78
2023-03-05T14:58:35.422Z,99600.72
2023-03-05T15:01:04.012Z,99595.75
2023-03-05T15:03:33.091Z,99596.16
2023-03-05T15:06:02.104Z,99580.78
2023-03-05T15:08:33.148Z,99591.84
2023-03-05T15:11:03.581Z,99589.41
2023-03-05T15:13:32.463Z,99584.91
2023-03-05T15:16:01.245Z,99579.63
2023-03-05T15:18:29.958Z,99583.94
2023-03-05T15:20:58.519Z,99575.34
2023-03-05T15:23:29.771Z,99579.47
2023-03-05T15:26:00.669Z,99574.19
2023-03-05T15:28:29.188Z,99570.66
2023-03-05T15:30:59.731Z,99567.34
2023-03-05T15:33:29.312Z,99568.78
2023-03-05T15:35:58.103Z,99556.28
2023-03-05T15:38:26.741Z,99557.94
2023-03-05T15:40:55.250Z,99558.75
2023-03-05T15:43:23.443Z,99557.63
2023-03-05T15:45:51.985Z,99558.41
2023-03-05T15:48:20.378Z,99553.81
2023-03-05T15:50:48.998Z,99551.66
2023-03-05T15:53:18.065Z,99560.56
2023-03-05T15:55:47.040Z,99557.94
2023-03-05T15:58:17.773Z,99559.75
2023-03-05T16:00:47.497Z,99558.22
2023-03-05T16:03:16.419Z,99557.44
2023-03-05T16:05:45.109Z,99557.56
2023-03-05T16:08:13.697Z,99556.53
2023-03-05T16:10:42.347Z,99562.63
2023-03-05T16:13:15.770Z,99559.50
2023-03-05T16:15:44.686Z,99560.97
2023-03-05T16:18:16.565Z,99557.53
2023-03-05T16:20:45.277Z,99553.75
2023-03-05T16:23:13.925Z,99555.88
2023-03-05T16:25:42.351Z,99557.53
2023-03-05T16:28:11.277Z,99549.63
2023-03-05T16:30:39.991Z,99552.41
2023-03-05T16:33:08.551Z,99544.34
2023-03-05T16:35:37.422Z,99555.34
2023-03-05T16:38:07.056Z,99557.16
2023-03-05T16:41:06.123Z,99555.69
2023-03-05T16:43:27.805Z,99548.22
2023-03-05T16:45:56.425Z,99547.56
2023-03-05T16:48:24.923Z,99539.63
2023-03-05T16:50:53.367Z,99537.00
2023-03-05T16:53:21.935Z,99535.31
2023-03-05T16:55:50.442Z,99538.66
2023-03-05T16:58:18.983Z,99550.66
2023-03-05T17:00:49.010Z,99549.34
2023-03-05T17:03:17.659Z,99549.94
2023-03-05T17:05:46.507Z,99553.41
2023-03-05T17:08:14.942Z,99558.53
2023-03-05T17:10:44.633Z,99555.91
2023-03-05T17:13:13.347Z,99548.50
2023-03-05T17:18:12.441Z,99550.44
2023-03-05T17:20:41.067Z,99553.78
2023-03-05T17:23:09.744Z,99556.25
2023-03-05T17:25:38.865Z,99554.63
2023-03-05T17:28:07.844Z,99542.53
2023-03-05T17:30:40.729Z,99539.22
2023-03-05T17:33:09.466Z,99541.22
2023-03-05T17:35:38.284Z,99542.31
2023-03-05T17:38:10.884Z,99543.78
2023-03-05T17:40:41.680Z,99548.91
2023-03-05T17:43:10.342Z,99546.59
2023-03-05T17:45:39.276Z,99543.44
2023-03-05T17:48:08.456Z,99545.38
2023-03-05T17:50:37.542Z,99536.31
2023-03-05T17:53:06.996Z,99542.44
2023-03-05T17:55:35.513Z,99532.88
2023-03-05T17:58:04.062Z,99539.78
2023-03-05T18:00:33.097Z,99545.38
2023-03-05T18:03:02.155Z,99541.91
2023-03-05T18:05:31.116Z,99534.16
2023-03-05T18:08:03.426Z,99525.28
2023-03-05T18:10:33.227Z,99514.84
2023-03-05T18:13:01.715Z,99530.84
2023-03-05T18:15:30.841Z,99522.44
2023-03-05T18:17:59.679Z,99515.94
2023-03-05T18:20:39.013Z,99511.81
2023-03-05T18:23:10.180Z,99517.75
2023-03-05T18:25:38.715Z,99514.31
2023-03-05T18:28:14.828Z,99508.19
2023-03-05T18:30:44.366Z,99510.53
2023-03-05T18:33:21.630Z,99507.72
2023-03-05T18:35:52.307Z,99501.63
2023-03-05T18:38:27.351Z,99499.00
2023-03-05T18:41:03.032Z,99497.31
2023-03-05T18:43:31.770Z,99492.19
2023-03-05T18:46:00.386Z,99492.38
2023-03-05T18:48:29.000Z,99502.44
2023-03-05T18:50:57.510Z,99490.25
2023-03-05T18:53:26.212Z,99490.38
2023-03-05T18:55:55.054Z,99489.56
2023-03-05T18:58:25.898Z,99481.13
2023-03-05T19:00:54.716Z,99463.78
2023-03-05T19:03:23.315Z,99451.88
2023-03-05T19:05:52.184Z,99463.91
2023-03-05T19:08:21.320Z,99475.06
2023-03-05T19:10:49.826Z,99475.53
2023-03-05T19:13:52.266Z,99485.72
2023-03-05T19:16:28.078Z,99482.41
2023-03-05T19:19:05.158Z,99480.75
2023-03-05T19:21:33.793Z,99483.41
2023-03-05T19:24:02.552Z,99478.94
2023-03-05T19:26:31.132Z,99479.91
2023-03-05T19:28:59.637Z,99474.50
2023-03-05T19:31:28.159Z,99470.88
2023-03-05T19:34:05.902Z,99476.97
2023-03-05T19:36:35.637Z,99460.00
2023-03-05T19:39:10.032Z,99471.25
2023-03-05T19:41:39.082Z,99467.63
2023-03-05T19:44:08.151Z,99468.44
2023-03-05T19:46:36.926Z,99456.25
2023-03-05T19:49:05.782Z,99464.97
2023-03-05T19:51:34.190Z,99454.28
2023-03-05T19:54:05.613Z,99453.63
2023-03-05T19:56:33.972Z,99457.22
2023-03-05T19:59:11.299Z,99453.63
2023-03-05T20:01:44.014Z,99449.44
2023-03-05T20:04:16.638Z,99456.34
2023-03-05T20:06:45.378Z,99455.66
2023-03-05T20:09:14.422Z,99449.72
2023-03-05T20:11:43.179Z,99451.38
2023-03-05T20:14:13.066Z,99449.88
2023-03-05T20:16:43.087Z,99441.44
2023-03-05T20:19:18.505Z,99444.78
2023-03-05T20:21:47.416Z,99444.78
2023-03-05T20:24:19.496Z,99430.75
2023-03-05T20:26:48.822Z,99424.78
2023-03-05T20:29:18.703Z,99424.78
2023-03-05T20:31:47.777Z,99421.81
2023-03-05T20:34:19.094Z,99421.81
2023-03-05T20:36:47.887Z,99427.06
2023-03-05T20:39:16.513Z,99422.78
2023-03-05T20:41:45.122Z,99429.06
2023-03-05T20:44:14.314Z,99420.00
2023-03-05T20:46:54.254Z,99417.66
2023-03-05T20:49:23.079Z,99418.34
2023-03-05T20:51:51.674Z,99405.31
2023-03-05T20:54:20.260Z,99409.06
2023-03-05T20:56:48.977Z,99406.44
2023-03-05T20:59:17.693Z,99409.06
2023-03-05T21:01:46.560Z,99404.81
2023-03-05T21:04:15.097Z,99402.00
2023-03-05T21:06:43.532Z,99400.63
2023-03-05T21:09:12.126Z,99403.28
2023-03-05T21:11:40.605Z,99397.00
2023-03-05T21:14:09.076Z,99392.53
2023-03-05T21:16:37.608Z,99397.66
2023-03-05T21:19:06.112Z,99395.69
2023-03-05T21:21:52.088Z,99385.34
2023-03-05T21:24:24.093Z,99384.69
2023-03-05T21:26:52.543Z,99387.47
2023-03-05T21:29:21.057Z,99384.53
2023-03-05T21:31:49.583Z,99378.75
2023-03-05T21:34:19.027Z,99379.72
2023-03-05T21:36:47.532Z,99374.06
2023-03-05T21:39:16.200Z,99375.06
2023-03-05T21:41:46.534Z,99376.03
2023-03-05T21:44:17.692Z,99381.63
2023-03-05T21:46:46.341Z,99367.63
2023-03-05T21:49:16.715Z,99369.59
2023-03-05T21:51:58.965Z,99372.38
2023-03-05T21:54:29.045Z,99368.09
2023-03-05T21:56:57.547Z,99364.94
2023-03-05T21:59:26.153Z,99355.69
2023-03-05T22:01:54.721Z,99359.66
2023-03-05T22:04:23.201Z,99344.53
2023-03-05T22:06:51.853Z,99343.53
2023-03-05T22:09:20.343Z,99346.84
2023-03-05T22:11:48.761Z,99341.25
2023-03-05T22:14:18.113Z,99350.13
2023-03-05T22:16:46.742Z,99344.59
2023-03-05T22:19:15.441Z,99342.63
2023-03-05T22:21:44.084Z,99341.16
2023-03-05T22:24:12.800Z,99343.13
2023-03-05T22:26:42.757Z,99343.13
2023-03-05T22:29:13.012Z,99336.38
2023-03-05T22:31:41.720Z,99326.81
2023-03-05T22:34:10.391Z,99328.78
2023-03-05T22:36:38.869Z,99327.44
2023-03-05T22:39:07.311Z,99330.72
2023-03-05T22:41:35.788Z,99317.41
2023-03-05T22:44:04.341Z,99323.66
2023-03-05T22:46:32.841Z,99322.69
2023-03-05T22:49:01.293Z,99312.13
2023-03-05T22:51:29.841Z,99320.19
2023-03-05T22:53:58.337Z,99308.66
2023-03-05T22:56:26.817Z,99313.41
2023-03-05T22:58:55.617Z,99310.78
2023-03-05T23:01:27.749Z,99310.91
2023-03-05T23:04:05.516Z,99314.03
2023-03-05T23:06:34.019Z,99309.59
2023-03-05T23:09:02.633Z,99300.34
2023-03-05T23:11:31.288Z,99305.31
2023-03-05T23:13:59.754Z,99300.03
2023-03-05T23:16:28.422Z,99291.47
2023-03-05T23:18:56.967Z,99296.88
2023-03-05T23:21:25.451Z,99302.00
2023-03-05T23:23:56.593Z,99292.28
2023-03-05T23:26:25.794Z,99296.44
2023-03-05T23:28:54.326Z,99296.44
2023-03-05T23:31:22.795Z,99293.63
2023-03-05T23:33:51.340Z,99292.00
2023-03-05T23:36:20.262Z,99296.25
2023-03-05T23:38:48.903Z,99285.72
2023-03-05T23:41:17.507Z,99292.00
2023-03-05T23:43:45.998Z,99275.81
2023-03-05T23:46:14.592Z,99292.44
2023-03-05T23:48:43.127Z,99283.03
2023-03-05T23:51:12.106Z,99280.41
2023-03-05T23:53:40.587Z,99286.00
2023-03-05T23:56:13.345Z,99281.84
2023-03-05T23:58:42.692Z,99269.66
